Time;durP1;ratioP1;P1;durP2;ratioP2;P2;SDS_P1;SDS_P2;PMS_P1;PMS_P2;Temp;Humidity;BMP_temperature;BMP_pressure;BME280_temperature;BME280_humidity;BME280_pressure;Samples;Min_cycle;Max_cycle;Signal;HPM_P1;HPM_P2
2023/07/21 02:20:09;;;;;;;;;;;;;;;;;;5031201;28;19940;-63
2023/07/21 02:22:35;;;;;;;;;;;;;;;;;;5033071;28;19950;-63
2023/07/21 02:25:03;;;;;;;;;;;;;;;;;;5042669;28;19920;-65
2023/07/21 02:27:31;;;;;;;;;;;;;;;;;;5035422;28;19927;-64
2023/07/21 02:29:57;;;;;;;;;;;;;;;;;;5014581;28;19916;-65
2023/07/21 02:32:23;;;;;;;;;;;;;;;;;;5033885;28;20059;-64
2023/07/21 02:34:51;;;;;;;;;;;;;;;;;;5034015;28;19921;-64
2023/07/21 02:37:16;;;;;;;;;;;;;;;;;;5033562;28;20367;-63
2023/07/21 02:39:42;;;;;;;;;;;;;;;;;;5034776;28;20413;-64
2023/07/21 02:42:12;;;;;;;;;;;;;;;;;;5038819;28;20259;-64
2023/07/21 02:44:40;;;;;;;;;;;;;;;;;;5024672;28;19921;-64
2023/07/21 02:47:09;;;;;;;;;;;;;;;;;;5028742;28;19931;-64
2023/07/21 02:49:34;;;;;;;;;;;;;;;;;;5023655;28;19921;-64
2023/07/21 02:51:59;;;;;;;;;;;;;;;;;;5024813;28;20021;-64
2023/07/21 02:54:25;;;;;;;;;;;;;;;;;;5040326;28;19924;-64
2023/07/21 02:56:53;;;;;;;;;;;;;;;;;;5034797;28;21862;-64
2023/07/21 02:59:26;;;;;;;;;;;;;;;;;;5026180;28;20047;-64
2023/07/21 03:01:54;;;;;;;;;;;;;;;;;;5031961;28;20495;-63
2023/07/21 03:04:23;;;;;;;;;;;;;;;;;;5016289;28;19926;-64
2023/07/21 03:06:48;;;;;;;;;;;;;;;;;;5028296;28;19921;-63
2023/07/21 03:09:13;;;;;;;;;;;;;;;;;;5016396;28;19947;-63
2023/07/21 03:11:41;;;;;;;;;;;;;;;;;;5041138;28;19917;-64
2023/07/21 03:14:06;;;;;;;;;;;;;;;;;;5014057;28;19920;-64
2023/07/21 03:16:37;;;;;;;;;;;;;;;;;;5043152;28;19916;-63
2023/07/21 03:19:02;;;;;;;;;;;;;;;;;;5041924;28;19935;-64
2023/07/21 03:21:27;;;;;;;;;;;;;;;;;;5022966;28;19921;-63
2023/07/21 03:23:55;;;;;;;;;;;;;;;;;;5033026;28;20031;-64
2023/07/21 03:26:24;;;;;;;;;;;;;;;;;;5032882;28;19920;-64
2023/07/21 03:28:52;;;;;;;;;;;;;;;;;;5026752;28;19921;-63
2023/07/21 03:31:17;;;;;;;;;;;;;;;;;;5040300;28;19936;-65
2023/07/21 03:33:43;;;;;;;;;;;;;;;;;;5023923;28;20006;-64
2023/07/21 03:36:10;;;;;;;;;;;;;;;;;;5027360;28;19930;-64
2023/07/21 03:38:39;;;;;;;;;;;;;;;;;;5042052;28;19917;-64
2023/07/21 03:41:07;;;;;;;;;;;;;;;;;;5027478;28;19927;-63
2023/07/21 03:43:35;;;;;;;;;;;;;;;;;;5027349;28;20454;-63
2023/07/21 03:46:00;;;;;;;;;;;;;;;;;;5012927;28;19959;-63
2023/07/21 03:48:26;;;;;;;;;;;;;;;;;;5025678;28;19928;-64
2023/07/21 03:50:51;;;;;;;;;;;;;;;;;;5041355;28;19928;-64
2023/07/21 03:53:21;;;;;;;;;;;;;;;;;;5015349;28;19924;-64
2023/07/21 03:55:49;;;;;;;;;;;;;;;;;;5027047;28;20025;-64
2023/07/21 03:58:17;;;;;;;;;;;;;;;;;;5032082;28;20454;-65
2023/07/21 04:00:42;;;;;;;;;;;;;;;;;;5041097;28;19920;-65
2023/07/21 04:03:11;;;;;;;;;;;;;;;;;;5039296;28;19917;-64
2023/07/21 04:05:39;;;;;;;;;;;;;;;;;;5026829;28;19925;-64
2023/07/21 04:08:04;;;;;;;;;;;;;;;;;;5039846;28;20006;-64
2023/07/21 04:10:30;;;;;;;;;;;;;;;;;;5042078;28;19921;-64
2023/07/21 04:12:56;;;;;;;;;;;;;;;;;;5011907;28;20226;-64
2023/07/21 04:15:21;;;;;;;;;;;;;;;;;;5031744;28;19928;-65
2023/07/21 04:17:49;;;;;;;;;;;;;;;;;;5040028;28;20580;-65
2023/07/21 04:20:17;;;;;;;;;;;;;;;;;;5012575;28;20713;-64
2023/07/21 04:22:45;;;;;;;;;;;;;;;;;;5030853;28;19927;-65
2023/07/21 04:25:11;;;;;;;;;;;;;;;;;;5013418;28;20527;-65
2023/07/21 04:27:38;;;;;;;;;;;;;;;;;;5041354;28;19924;-64
2023/07/21 04:30:06;;;;;;;;;;;;;;;;;;5042476;28;19927;-64
2023/07/21 04:32:32;;;;;;;;;;;;;;;;;;5022195;28;19916;-64
2023/07/21 04:34:57;;;;;;;;;;;;;;;;;;5027524;28;20121;-64
2023/07/21 04:37:22;;;;;;;;;;;;;;;;;;5023441;28;20453;-63
2023/07/21 04:39:47;;;;;;;;;;;;;;;;;;5014899;28;19916;-64
2023/07/21 04:42:16;;;;;;;;;;;;;;;;;;5039828;28;21807;-64
2023/07/21 04:44:41;;;;;;;;;;;;;;;;;;5012701;28;20003;-63
2023/07/21 04:47:06;;;;;;;;;;;;;;;;;;5040163;28;19931;-62
2023/07/21 04:49:31;;;;;;;;;;;;;;;;;;5031585;28;20495;-64
2023/07/21 04:52:00;;;;;;;;;;;;;;;;;;5015580;28;19923;-63
2023/07/21 04:54:26;;;;;;;;;;;;;;;;;;5024582;28;20858;-64
2023/07/21 04:56:53;;;;;;;;;;;;;;;;;;5015628;28;19924;-64
2023/07/21 04:59:19;;;;;;;;;;;;;;;;;;5040910;28;20405;-63
2023/07/21 05:01:44;;;;;;;;;;;;;;;;;;5040549;28;19982;-64
2023/07/21 05:04:09;;;;;;;;;;;;;;;;;;5014041;28;19943;-64
2023/07/21 05:06:37;;;;;;;;;;;;;;;;;;5015827;28;19931;-65
2023/07/21 05:09:03;;;;;;;;;;;;;;;;;;5046665;28;19917;-65
2023/07/21 05:11:31;;;;;;;;;;;;;;;;;;5046290;28;19923;-65
2023/07/21 05:13:58;;;;;;;;;;;;;;;;;;5020460;28;20546;-65
2023/07/21 05:16:26;;;;;;;;;;;;;;;;;;5047274;28;19920;-64
2023/07/21 05:18:53;;;;;;;;;;;;;;;;;;5014763;28;19928;-63
2023/07/21 05:21:19;;;;;;;;;;;;;;;;;;5045075;28;20375;-65
2023/07/21 05:23:44;;;;;;;;;;;;;;;;;;5036447;28;19927;-64
2023/07/21 05:26:11;;;;;;;;;;;;;;;;;;5013315;28;19923;-64
2023/07/21 05:28:36;;;;;;;;;;;;;;;;;;5034579;28;20347;-65
2023/07/21 05:31:04;;;;;;;;;;;;;;;;;;5030238;28;19939;-64
2023/07/21 05:33:29;;;;;;;;;;;;;;;;;;5011530;28;19919;-64
2023/07/21 05:35:54;;;;;;;;;;;;;;;;;;5044375;28;19917;-64
2023/07/21 05:38:22;;;;;;;;;;;;;;;;;;5023979;28;20445;-65
2023/07/21 05:40:50;;;;;;;;;;;;;;;;;;5017952;28;19989;-64
2023/07/21 05:43:15;;;;;;;;;;;;;;;;;;5045167;28;20330;-66
2023/07/21 05:45:40;;;;;;;;;;;;;;;;;;5026776;28;20395;-65
2023/07/21 05:48:09;;;;;;;;;;;;;;;;;;5044395;28;20631;-66
2023/07/21 05:50:35;;;;;;;;;;;;;;;;;;5025313;28;20073;-65
2023/07/21 05:53:00;;;;;;;;;;;;;;;;;;5036060;28;19920;-65
2023/07/21 05:55:25;;;;;;;;;;;;;;;;;;5016315;28;20418;-64
2023/07/21 05:57:53;;;;;;;;;;;;;;;;;;5026876;28;19923;-65
2023/07/21 06:00:18;;;;;;;;;;;;;;;;;;5042785;28;19948;-66
2023/07/21 06:02:44;;;;;;;;;;;;;;;;;;5024886;28;20584;-66
2023/07/21 06:05:12;;;;;;;;;;;;;;;;;;5028565;28;19920;-66
2023/07/21 06:07:42;;;;;;;;;;;;;;;;;;5033916;28;20006;-65
2023/07/21 06:10:09;;;;;;;;;;;;;;;;;;5043304;28;19917;-66
2023/07/21 06:12:35;;;;;;;;;;;;;;;;;;5016199;28;19927;-66
2023/07/21 06:15:00;;;;;;;;;;;;;;;;;;5026227;28;20439;-65
2023/07/21 06:17:26;;;;;;;;;;;;;;;;;;5033550;28;20996;-65
2023/07/21 06:19:54;;;;;;;;;;;;;;;;;;5017721;28;20034;-65
2023/07/21 06:22:19;;;;;;;;;;;;;;;;;;5044128;28;19992;-65
2023/07/21 06:24:45;;;;;;;;;;;;;;;;;;5042588;28;19920;-66
2023/07/21 06:27:11;;;;;;;;;;;;;;;;;;5042575;28;19916;-67
2023/07/21 06:29:37;;;;;;;;;;;;;;;;;;5043253;28;19917;-67
2023/07/21 06:32:02;;;;;;;;;;;;;;;;;;5027916;28;19928;-65
2023/07/21 06:34:27;;;;;;;;;;;;;;;;;;5017857;28;20007;-66
2023/07/21 06:36:52;;;;;;;;;;;;;;;;;;5041904;28;19920;-67
2023/07/21 06:39:18;;;;;;;;;;;;;;;;;;5039985;28;19920;-67
2023/07/21 06:41:46;;;;;;;;;;;;;;;;;;5043871;28;19916;-66
2023/07/21 06:44:14;;;;;;;;;;;;;;;;;;5038523;28;19955;-67
2023/07/21 06:46:40;;;;;;;;;;;;;;;;;;5017646;28;20518;-67
2023/07/21 06:49:05;;;;;;;;;;;;;;;;;;5016806;28;19917;-67
2023/07/21 06:51:30;;;;;;;;;;;;;;;;;;5028650;28;19916;-67
2023/07/21 06:53:56;;;;;;;;;;;;;;;;;;5017561;28;20018;-67
2023/07/21 06:56:23;;;;;;;;;;;;;;;;;;5028938;28;20423;-67
2023/07/21 06:58:51;;;;;;;;;;;;;;;;;;5015212;28;21176;-67
2023/07/21 07:01:19;;;;;;;;;;;;;;;;;;5043277;28;19917;-68
2023/07/21 07:03:44;;;;;;;;;;;;;;;;;;5021644;28;20004;-68
2023/07/21 07:06:10;;;;;;;;;;;;;;;;;;5023047;28;19921;-67
2023/07/21 07:08:38;;;;;;;;;;;;;;;;;;5017498;28;19928;-68
2023/07/21 07:11:06;;;;;;;;;;;;;;;;;;5033375;28;19921;-67
2023/07/21 07:13:33;;;;;;;;;;;;;;;;;;5028691;28;19920;-67
2023/07/21 07:15:59;;;;;;;;;;;;;;;;;;5043873;28;19932;-67
2023/07/21 07:18:28;;;;;;;;;;;;;;;;;;5033901;28;19968;-67
2023/07/21 07:20:57;;;;;;;;;;;;;;;;;;5026330;28;19952;-66
2023/07/21 07:23:24;;;;;;;;;;;;;;;;;;5035828;28;20902;-66
2023/07/21 07:25:49;;;;;;;;;;;;;;;;;;5028448;28;19935;-66
2023/07/21 07:28:15;;;;;;;;;;;;;;;;;;5027106;28;20339;-66
2023/07/21 07:30:45;;;;;;;;;;;;;;;;;;5017430;28;19917;-66
2023/07/21 07:33:14;;;;;;;;;;;;;;;;;;5030851;28;19924;-66
2023/07/21 07:35:41;;;;;;;;;;;;;;;;;;5033319;28;19916;-68
2023/07/21 07:38:09;;;;;;;;;;;;;;;;;;5032880;28;19928;-68
2023/07/21 07:40:34;;;;;;;;;;;;;;;;;;5033574;28;20010;-66
2023/07/21 07:42:59;;;;;;;;;;;;;;;;;;5014092;28;19929;-67
2023/07/21 07:45:24;;;;;;;;;;;;;;;;;;5010059;28;20298;-68
2023/07/21 07:47:52;;;;;;;;;;;;;;;;;;5042070;28;20033;-68
2023/07/21 07:50:20;;;;;;;;;;;;;;;;;;5040579;28;20517;-67
2023/07/21 07:52:45;;;;;;;;;;;;;;;;;;5021314;28;19920;-66
2023/07/21 07:55:10;;;;;;;;;;;;;;;;;;5016602;28;19939;-66
2023/07/21 07:57:38;;;;;;;;;;;;;;;;;;5026712;28;19924;-67
2023/07/21 08:00:08;;;;;;;;;;;;;;;;;;5024102;28;20019;-68
2023/07/21 08:02:33;;;;;;;;;;;;;;;;;;5038487;28;19920;-67
2023/07/21 08:04:58;;;;;;;;;;;;;;;;;;5026439;28;20577;-67
2023/07/21 08:07:26;;;;;;;;;;;;;;;;;;5041745;28;19928;-67
2023/07/21 08:09:54;;;;;;;;;;;;;;;;;;5032918;28;19920;-67
2023/07/21 08:12:21;;;;;;;;;;;;;;;;;;5043145;28;20042;-66
2023/07/21 08:14:50;;;;;;;;;;;;;;;;;;5032970;28;19932;-67
2023/07/21 08:17:17;;;;;;;;;;;;;;;;;;5041736;28;19924;-67
2023/07/21 08:19:44;;;;;;;;;;;;;;;;;;5009330;28;20383;-67
2023/07/21 08:22:10;;;;;;;;;;;;;;;;;;5027235;28;19920;-67
2023/07/21 08:24:35;;;;;;;;;;;;;;;;;;5014353;28;19975;-68
2023/07/21 08:27:02;;;;;;;;;;;;;;;;;;5042857;28;19920;-66
2023/07/21 08:29:28;;;;;;;;;;;;;;;;;;5015742;28;20035;-68
2023/07/21 08:31:53;;;;;;;;;;;;;;;;;;5022666;28;20401;-67
2023/07/21 08:34:21;;;;;;;;;;;;;;;;;;5015725;28;20013;-67
2023/07/21 08:36:49;;;;;;;;;;;;;;;;;;5042974;28;20039;-67
2023/07/21 08:39:14;;;;;;;;;;;;;;;;;;5028624;28;19920;-67
2023/07/21 08:41:39;;;;;;;;;;;;;;;;;;5034493;28;19917;-68
2023/07/21 08:44:07;;;;;;;;;;;;;;;;;;5018030;28;19925;-67
2023/07/21 08:46:35;;;;;;;;;;;;;;;;;;5030950;28;19927;-68
2023/07/21 08:49:00;;;;;;;;;;;;;;;;;;5045401;28;20552;-68
2023/07/21 08:51:26;;;;;;;;;;;;;;;;;;5028448;28;19990;-68
2023/07/21 08:53:53;;;;;;;;;;;;;;;;;;5018672;28;19920;-67
2023/07/21 08:56:18;;;;;;;;;;;;;;;;;;5031521;28;20413;-66
2023/07/21 08:58:47;;;;;;;;;;;;;;;;;;5046672;28;19917;-67
2023/07/21 09:01:14;;;;;;;;;;;;;;;;;;5047330;28;20306;-68
2023/07/21 09:03:42;;;;;;;;;;;;;;;;;;5028355;28;19921;-69
2023/07/21 09:06:07;;;;;;;;;;;;;;;;;;5044363;28;19924;-69
2023/07/21 09:08:35;;;;;;;;;;;;;;;;;;5016928;28;20468;-69
2023/07/21 09:11:03;;;;;;;;;;;;;;;;;;5031358;28;19927;-67
2023/07/21 09:13:30;;;;;;;;;;;;;;;;;;5029026;28;19966;-67
2023/07/21 09:15:58;;;;;;;;;;;;;;;;;;5028074;28;20632;-67
2023/07/21 09:18:23;;;;;;;;;;;;;;;;;;5044493;28;19928;-67
2023/07/21 09:20:53;;;;;;;;;;;;;;;;;;5036640;28;19920;-68
2023/07/21 09:23:21;;;;;;;;;;;;;;;;;;5019677;28;19916;-67
2023/07/21 09:25:47;;;;;;;;;;;;;;;;;;5047451;28;19917;-69
2023/07/21 09:28:12;;;;;;;;;;;;;;;;;;5035649;28;19975;-67
2023/07/21 09:30:37;;;;;;;;;;;;;;;;;;5044812;28;20386;-67
2023/07/21 09:33:02;;;;;;;;;;;;;;;;;;5034785;28;20050;-66
2023/07/21 09:35:28;;;;;;;;;;;;;;;;;;5015528;28;21126;-67
2023/07/21 09:37:58;;;;;;;;;;;;;;;;;;5017111;28;19917;-66
2023/07/21 09:40:23;;;;;;;;;;;;;;;;;;5035298;28;20752;-68
2023/07/21 09:42:48;;;;;;;;;;;;;;;;;;5020267;28;19921;-67
2023/07/21 09:45:14;;;;;;;;;;;;;;;;;;5021538;28;19917;-67
2023/07/21 09:47:41;;;;;;;;;;;;;;;;;;5045260;28;19971;-68
2023/07/21 09:50:09;;;;;;;;;;;;;;;;;;5018097;28;19940;-69
2023/07/21 09:52:39;;;;;;;;;;;;;;;;;;5034826;28;19943;-69
2023/07/21 09:55:07;;;;;;;;;;;;;;;;;;5012754;28;19925;-67
2023/07/21 09:57:38;;;;;;;;;;;;;;;;;;5017949;28;20023;-69
2023/07/21 10:00:14;;;;;;;;;;;;;;;;;;5017934;28;19928;-67
2023/07/21 10:02:40;;;;;;;;;;;;;;;;;;5040093;28;19924;-68
2023/07/21 10:05:05;;;;;;;;;;;;;;;;;;5025103;28;19938;-68
2023/07/21 10:07:30;;;;;;;;;;;;;;;;;;5015520;28;19959;-68
2023/07/21 10:09:56;;;;;;;;;;;;;;;;;;5035565;28;20051;-68
2023/07/21 10:12:23;;;;;;;;;;;;;;;;;;5026649;28;19928;-68
2023/07/21 10:14:51;;;;;;;;;;;;;;;;;;5017848;28;19924;-68
2023/07/21 10:17:16;;;;;;;;;;;;;;;;;;5012276;28;19920;-68
2023/07/21 10:19:42;;;;;;;;;;;;;;;;;;5039829;28;20415;-68
2023/07/21 10:22:11;;;;;;;;;;;;;;;;;;5044762;28;20851;-68
2023/07/21 10:24:39;;;;;;;;;;;;;;;;;;5034477;28;20407;-66
2023/07/21 10:27:04;;;;;;;;;;;;;;;;;;5029333;28;19923;-68
2023/07/21 10:29:30;;;;;;;;;;;;;;;;;;5035444;28;19920;-68
2023/07/21 10:31:55;;;;;;;;;;;;;;;;;;5033649;28;19913;-70
2023/07/21 10:34:23;;;;;;;;;;;;;;;;;;5018993;28;19924;-70
2023/07/21 10:36:48;;;;;;;;;;;;;;;;;;5034284;28;20018;-68
2023/07/21 10:39:19;;;;;;;;;;;;;;;;;;5018680;28;20400;-68
2023/07/21 10:41:47;;;;;;;;;;;;;;;;;;5041225;28;19947;-69
2023/07/21 10:44:15;;;;;;;;;;;;;;;;;;5043269;28;19921;-69
2023/07/21 10:46:40;;;;;;;;;;;;;;;;;;5024669;28;20299;-69
2023/07/21 10:49:12;;;;;;;;;;;;;;;;;;5016939;28;20032;-68
2023/07/21 10:51:39;;;;;;;;;;;;;;;;;;5043546;28;19967;-68
2023/07/21 10:54:04;;;;;;;;;;;;;;;;;;5027553;28;19931;-68
2023/07/21 10:56:35;;;;;;;;;;;;;;;;;;5015330;28;20005;-69
2023/07/21 10:59:00;;;;;;;;;;;;;;;;;;5033789;28;19963;-68
2023/07/21 11:01:26;;;;;;;;;;;;;;;;;;5013730;28;19916;-70
2023/07/21 11:03:54;;;;;;;;;;;;;;;;;;5032945;28;19943;-70
2023/07/21 11:06:20;;;;;;;;;;;;;;;;;;5015026;28;19933;-69
2023/07/21 11:08:50;;;;;;;;;;;;;;;;;;5018817;28;20315;-71
2023/07/21 11:11:21;;;;;;;;;;;;;;;;;;5041960;28;19928;-68
2023/07/21 11:13:46;;;;;;;;;;;;;;;;;;5010207;28;19916;-68
2023/07/21 11:16:11;;;;;;;;;;;;;;;;;;5029293;28;19916;-68
2023/07/21 11:18:39;;;;;;;;;;;;;;;;;;5033438;28;19925;-74
2023/07/21 11:21:05;;;;;;;;;;;;;;;;;;5011827;28;20007;-68
2023/07/21 11:23:33;;;;;;;;;;;;;;;;;;5023206;28;19986;-70
2023/07/21 11:25:58;;;;;;;;;;;;;;;;;;5034079;28;20577;-68
2023/07/21 11:28:26;;;;;;;;;;;;;;;;;;5024873;28;19917;-69
2023/07/21 11:30:52;;;;;;;;;;;;;;;;;;5018228;28;19917;-68
2023/07/21 11:33:17;;;;;;;;;;;;;;;;;;5030753;28;19950;-70
2023/07/21 11:35:43;;;;;;;;;;;;;;;;;;5043107;28;20812;-71
2023/07/21 11:38:08;;;;;;;;;;;;;;;;;;5043183;28;19927;-71
2023/07/21 11:40:34;;;;;;;;;;;;;;;;;;5017663;28;19924;-69
2023/07/21 11:43:02;;;;;;;;;;;;;;;;;;5042885;28;21255;-69
2023/07/21 11:45:28;;;;;;;;;;;;;;;;;;5033224;28;19921;-68
2023/07/21 11:47:55;;;;;;;;;;;;;;;;;;5009910;28;20561;-71
2023/07/21 11:50:24;;;;;;;;;;;;;;;;;;5025719;28;19928;-71
2023/07/21 11:52:49;;;;;;;;;;;;;;;;;;5043352;28;19917;-68
2023/07/21 11:55:17;;;;;;;;;;;;;;;;;;5017172;28;19979;-71
2023/07/21 11:57:44;;;;;;;;;;;;;;;;;;5015268;28;19924;-69
2023/07/21 12:00:11;;;;;;;;;;;;;;;;;;5041790;28;21731;-71
2023/07/21 12:02:37;;;;;;;;;;;;;;;;;;5025775;28;20005;-70
2023/07/21 12:05:03;;;;;;;;;;;;;;;;;;5010873;28;19917;-67
2023/07/21 12:07:29;;;;;;;;;;;;;;;;;;5026384;28;20012;-70
2023/07/21 12:09:54;;;;;;;;;;;;;;;;;;5042632;28;19920;-71
2023/07/21 12:12:20;;;;;;;;;;;;;;;;;;5021047;28;19921;-72
2023/07/21 12:14:45;;;;;;;;;;;;;;;;;;5015297;28;19931;-73
2023/07/21 12:17:14;;;;;;;;;;;;;;;;;;5014310;28;19974;-71
2023/07/21 12:19:41;;;;;;;;;;;;;;;;;;5032773;28;20000;-68
2023/07/21 12:22:07;;;;;;;;;;;;;;;;;;5024281;28;20438;-69
2023/07/21 12:24:33;;;;;;;;;;;;;;;;;;5015786;28;19956;-63
2023/07/21 12:26:58;;;;;;;;;;;;;;;;;;5015310;28;21007;-67
2023/07/21 12:29:23;;;;;;;;;;;;;;;;;;5019495;28;19916;-69
2023/07/21 12:31:49;;;;;;;;;;;;;;;;;;5033460;28;19920;-70
2023/07/21 12:34:17;;;;;;;;;;;;;;;;;;5029604;28;21491;-70
2023/07/21 12:36:42;;;;;;;;;;;;;;;;;;5026813;28;20023;-65
2023/07/21 12:39:12;;;;;;;;;;;;;;;;;;5023718;28;19954;-66
2023/07/21 12:41:38;;;;;;;;;;;;;;;;;;5041444;28;19921;-67
2023/07/21 12:44:03;;;;;;;;;;;;;;;;;;5013413;28;19967;-64
2023/07/21 12:46:28;;;;;;;;;;;;;;;;;;5040053;28;20046;-64
2023/07/21 12:48:54;;;;;;;;;;;;;;;;;;5024983;28;19956;-63
2023/07/21 12:51:23;;;;;;;;;;;;;;;;;;5031891;28;19927;-65
2023/07/21 12:53:48;;;;;;;;;;;;;;;;;;5032999;28;19921;-64
2023/07/21 12:56:13;;;;;;;;;;;;;;;;;;5015741;28;19920;-65
2023/07/21 12:58:41;;;;;;;;;;;;;;;;;;5024625;28;20052;-66
2023/07/21 13:01:06;;;;;;;;;;;;;;;;;;5032728;28;19928;-74
2023/07/21 13:03:32;;;;;;;;;;;;;;;;;;5016692;28;20031;-71
2023/07/21 13:05:57;;;;;;;;;;;;;;;;;;5042637;28;19924;-72
2023/07/21 13:08:23;;;;;;;;;;;;;;;;;;5017237;28;19955;-69
2023/07/21 13:10:49;;;;;;;;;;;;;;;;;;5013372;28;19932;-71
2023/07/21 13:13:14;;;;;;;;;;;;;;;;;;5041236;28;20294;-72
2023/07/21 13:15:42;;;;;;;;;;;;;;;;;;5026198;28;19917;-71
2023/07/21 13:18:07;;;;;;;;;;;;;;;;;;5024077;28;19943;-71
2023/07/21 13:20:35;;;;;;;;;;;;;;;;;;5013018;28;19924;-71
2023/07/21 13:23:00;;;;;;;;;;;;;;;;;;5042457;28;19916;-71
2023/07/21 13:25:28;;;;;;;;;;;;;;;;;;5036588;28;20400;-71
2023/07/21 13:27:54;;;;;;;;;;;;;;;;;;5032386;28;19966;-74
2023/07/21 13:30:19;;;;;;;;;;;;;;;;;;5031042;28;20280;-74
2023/07/21 13:32:47;;;;;;;;;;;;;;;;;;5040530;28;20007;-71
2023/07/21 13:35:15;;;;;;;;;;;;;;;;;;5032575;28;19957;-72
2023/07/21 13:37:44;;;;;;;;;;;;;;;;;;5045489;28;19927;-73
2023/07/21 13:40:09;;;;;;;;;;;;;;;;;;5049267;28;19917;-73
2023/07/21 13:42:34;;;;;;;;;;;;;;;;;;5048439;28;20268;-72
2023/07/21 13:45:00;;;;;;;;;;;;;;;;;;5027709;28;19920;-72
2023/07/21 13:47:25;;;;;;;;;;;;;;;;;;5046181;28;19921;-69
2023/07/21 13:50:11;;;;;;;;;;;;;;;;;;5036998;28;19921;-69
2023/07/21 13:52:37;;;;;;;;;;;;;;;;;;5045217;28;19923;-72
2023/07/21 13:55:02;;;;;;;;;;;;;;;;;;5015634;28;19927;-73
2023/07/21 13:57:30;;;;;;;;;;;;;;;;;;5017987;28;19920;-74
2023/07/21 13:59:56;;;;;;;;;;;;;;;;;;5018371;28;19980;-71
2023/07/21 14:02:22;;;;;;;;;;;;;;;;;;5032193;28;20824;-72
2023/07/21 14:04:47;;;;;;;;;;;;;;;;;;5018523;28;20045;-74
2023/07/21 14:07:18;;;;;;;;;;;;;;;;;;5033534;28;19928;-71
2023/07/21 14:09:45;;;;;;;;;;;;;;;;;;5027918;28;19916;-69
2023/07/21 14:12:10;;;;;;;;;;;;;;;;;;5047495;28;19916;-71
2023/07/21 14:14:36;;;;;;;;;;;;;;;;;;5035034;28;19921;-73
2023/07/21 14:17:01;;;;;;;;;;;;;;;;;;5029364;28;19969;-72
2023/07/21 14:22:37;;;;;;;;;;;;;;;;;;5003648;28;19924;-71
2023/07/21 14:25:03;;;;;;;;;;;;;;;;;;5034592;28;19920;-69
2023/07/21 14:27:28;;;;;;;;;;;;;;;;;;5043873;28;19917;-70
2023/07/21 14:30:03;;;;;;;;;;;;;;;;;;5050346;28;19920;-69
2023/07/21 14:35:33;;;;;;;;;;;;;;;;;;5046988;28;19944;-72
2023/07/21 14:38:09;;;;;;;;;;;;;;;;;;5032204;28;20043;-69
2023/07/21 14:41:11;;;;;;;;;;;;;;;;;;5040345;28;20081;-69
2023/07/21 14:46:38;;;;;;;;;;;;;;;;;;4997383;28;19925;-71
2023/07/21 14:49:05;;;;;;;;;;;;;;;;;;5033206;28;20494;-71
2023/07/21 14:51:33;;;;;;;;;;;;;;;;;;5023300;28;19917;-70
2023/07/21 14:54:05;;;;;;;;;;;;;;;;;;5043616;28;19920;-72
2023/07/21 14:56:31;;;;;;;;;;;;;;;;;;5039201;28;20005;-72
2023/07/21 14:58:56;;;;;;;;;;;;;;;;;;5018789;28;19916;-71
2023/07/21 15:01:22;;;;;;;;;;;;;;;;;;5042207;28;19978;-71
2023/07/21 15:03:49;;;;;;;;;;;;;;;;;;5025289;28;20379;-70
2023/07/21 15:06:14;;;;;;;;;;;;;;;;;;5018720;28;21038;-70
2023/07/21 15:08:40;;;;;;;;;;;;;;;;;;5035620;28;20039;-70
2023/07/21 15:11:08;;;;;;;;;;;;;;;;;;5036433;28;20356;-71
2023/07/21 15:13:33;;;;;;;;;;;;;;;;;;5013422;28;19977;-71
2023/07/21 15:15:59;;;;;;;;;;;;;;;;;;5036024;28;20695;-73
2023/07/21 15:18:27;;;;;;;;;;;;;;;;;;5035863;28;20935;-73
2023/07/21 15:20:53;;;;;;;;;;;;;;;;;;5019922;28;19925;-71
2023/07/21 15:23:18;;;;;;;;;;;;;;;;;;5028570;28;19954;-73
2023/07/21 15:25:44;;;;;;;;;;;;;;;;;;5043499;28;19985;-71
2023/07/21 15:31:25;;;;;;;;;;;;;;;;;;5043721;28;20032;-69
2023/07/21 15:33:53;;;;;;;;;;;;;;;;;;5024803;28;20294;-72
2023/07/21 15:36:18;;;;;;;;;;;;;;;;;;5023250;28;19921;-72
2023/07/21 15:38:43;;;;;;;;;;;;;;;;;;5011034;28;19916;-70
2023/07/21 15:41:09;;;;;;;;;;;;;;;;;;5042582;28;20777;-70
2023/07/21 15:43:34;;;;;;;;;;;;;;;;;;5033042;28;19940;-69
2023/07/21 15:46:02;;;;;;;;;;;;;;;;;;5027903;28;20360;-72
2023/07/21 15:48:29;;;;;;;;;;;;;;;;;;5014886;28;19924;-70
2023/07/21 15:50:54;;;;;;;;;;;;;;;;;;5011292;28;20011;-71
2023/07/21 15:53:22;;;;;;;;;;;;;;;;;;5023370;28;19935;-72
2023/07/21 15:55:47;;;;;;;;;;;;;;;;;;5020918;28;19916;-68
2023/07/21 15:58:14;;;;;;;;;;;;;;;;;;5027641;28;20419;-73
2023/07/21 16:00:42;;;;;;;;;;;;;;;;;;5031493;28;19917;-71
2023/07/21 16:03:09;;;;;;;;;;;;;;;;;;5032338;28;20072;-74
2023/07/21 16:05:35;;;;;;;;;;;;;;;;;;5024522;28;19954;-70
2023/07/21 16:08:00;;;;;;;;;;;;;;;;;;5026415;28;20806;-73
2023/07/21 16:10:25;;;;;;;;;;;;;;;;;;5041915;28;20050;-72
2023/07/21 16:12:53;;;;;;;;;;;;;;;;;;5023915;28;20496;-74
2023/07/21 16:15:18;;;;;;;;;;;;;;;;;;5032718;28;20245;-71
2023/07/21 16:17:45;;;;;;;;;;;;;;;;;;5040645;28;19959;-72
2023/07/21 16:20:12;;;;;;;;;;;;;;;;;;5016005;28;19928;-73
2023/07/21 16:22:37;;;;;;;;;;;;;;;;;;5043412;28;19929;-73
2023/07/21 16:25:03;;;;;;;;;;;;;;;;;;5016330;28;19924;-74
2023/07/21 16:27:28;;;;;;;;;;;;;;;;;;5044031;28;19977;-72
2023/07/21 16:29:54;;;;;;;;;;;;;;;;;;5025988;28;19967;-72
2023/07/21 16:32:19;;;;;;;;;;;;;;;;;;5007933;28;20276;-74
2023/07/21 16:34:44;;;;;;;;;;;;;;;;;;5024171;28;19927;-73
2023/07/21 16:37:10;;;;;;;;;;;;;;;;;;5026521;28;19916;-72
2023/07/21 16:39:35;;;;;;;;;;;;;;;;;;5034035;28;22169;-72
2023/07/21 16:42:01;;;;;;;;;;;;;;;;;;5031462;28;19928;-71
2023/07/21 16:44:27;;;;;;;;;;;;;;;;;;5041261;28;19958;-74
2023/07/21 16:46:55;;;;;;;;;;;;;;;;;;5016224;28;20539;-74
2023/07/21 16:49:21;;;;;;;;;;;;;;;;;;5026111;28;20011;-76
2023/07/21 16:51:46;;;;;;;;;;;;;;;;;;5028241;28;20061;-76
2023/07/21 16:54:11;;;;;;;;;;;;;;;;;;5035161;28;19922;-72
2023/07/21 16:56:37;;;;;;;;;;;;;;;;;;5023885;28;19921;-73
2023/07/21 16:59:03;;;;;;;;;;;;;;;;;;5042323;28;20015;-74
2023/07/21 17:01:31;;;;;;;;;;;;;;;;;;5017557;28;19916;-74
2023/07/21 17:03:57;;;;;;;;;;;;;;;;;;5019062;28;19927;-73
2023/07/21 17:06:22;;;;;;;;;;;;;;;;;;5045780;28;19986;-73
2023/07/21 17:08:48;;;;;;;;;;;;;;;;;;5036621;28;20375;-73
2023/07/21 17:11:13;;;;;;;;;;;;;;;;;;5044615;28;19924;-73
2023/07/21 17:13:38;;;;;;;;;;;;;;;;;;5036551;28;20009;-75
2023/07/21 17:16:06;;;;;;;;;;;;;;;;;;5046003;28;20099;-73
2023/07/21 17:18:32;;;;;;;;;;;;;;;;;;5044238;28;20035;-74
2023/07/21 17:20:58;;;;;;;;;;;;;;;;;;5032680;28;19924;-75
2023/07/21 17:23:23;;;;;;;;;;;;;;;;;;5025612;28;19944;-70
2023/07/21 17:25:49;;;;;;;;;;;;;;;;;;5027585;28;19921;-75
2023/07/21 17:28:14;;;;;;;;;;;;;;;;;;5038439;28;19963;-76
2023/07/21 17:30:40;;;;;;;;;;;;;;;;;;5016505;28;19953;-74
2023/07/21 17:33:06;;;;;;;;;;;;;;;;;;5026007;28;19921;-74
2023/07/21 17:35:31;;;;;;;;;;;;;;;;;;5016598;28;19916;-74
2023/07/21 17:37:56;;;;;;;;;;;;;;;;;;5026989;28;19933;-75
2023/07/21 17:40:22;;;;;;;;;;;;;;;;;;5010495;28;19954;-72
2023/07/21 17:42:47;;;;;;;;;;;;;;;;;;5016573;28;19921;-75
2023/07/21 17:45:13;;;;;;;;;;;;;;;;;;5026312;28;20465;-74
2023/07/21 17:47:41;;;;;;;;;;;;;;;;;;5016284;28;19960;-74
2023/07/21 17:50:06;;;;;;;;;;;;;;;;;;5031220;28;19932;-75
2023/07/21 17:52:32;;;;;;;;;;;;;;;;;;5025644;28;19917;-73
2023/07/21 17:54:57;;;;;;;;;;;;;;;;;;5010862;28;19917;-72
2023/07/21 17:57:22;;;;;;;;;;;;;;;;;;5025149;28;19986;-75
2023/07/21 17:59:48;;;;;;;;;;;;;;;;;;5042636;28;19933;-78
2023/07/21 18:02:13;;;;;;;;;;;;;;;;;;5034354;28;19959;-73
2023/07/21 18:04:39;;;;;;;;;;;;;;;;;;5025093;28;20015;-76
2023/07/21 18:07:04;;;;;;;;;;;;;;;;;;5028463;28;20058;-75
2023/07/21 18:09:30;;;;;;;;;;;;;;;;;;5043692;28;21192;-74
2023/07/21 18:11:55;;;;;;;;;;;;;;;;;;5024963;28;20466;-74
2023/07/21 18:14:20;;;;;;;;;;;;;;;;;;5033942;28;19943;-73
2023/07/21 18:16:46;;;;;;;;;;;;;;;;;;5039954;28;19921;-75
2023/07/21 18:19:13;;;;;;;;;;;;;;;;;;5029220;28;20402;-73
2023/07/21 18:21:39;;;;;;;;;;;;;;;;;;5044960;28;19951;-75
2023/07/21 18:24:04;;;;;;;;;;;;;;;;;;5028288;28;20008;-74
2023/07/21 18:26:29;;;;;;;;;;;;;;;;;;5028817;28;20542;-72
2023/07/21 18:28:55;;;;;;;;;;;;;;;;;;5046582;28;19959;-74
2023/07/21 18:31:20;;;;;;;;;;;;;;;;;;5026256;28;20390;-75
2023/07/21 18:33:46;;;;;;;;;;;;;;;;;;5034269;28;20698;-75
2023/07/21 18:36:12;;;;;;;;;;;;;;;;;;5023771;28;19998;-74
2023/07/21 18:38:37;;;;;;;;;;;;;;;;;;5026965;28;20045;-78
2023/07/21 18:41:02;;;;;;;;;;;;;;;;;;5031215;28;19958;-76
2023/07/21 18:43:28;;;;;;;;;;;;;;;;;;5044174;28;19920;-74
2023/07/21 18:45:53;;;;;;;;;;;;;;;;;;5046923;28;19924;-74
2023/07/21 18:48:18;;;;;;;;;;;;;;;;;;5028102;28;19920;-73
2023/07/21 18:50:44;;;;;;;;;;;;;;;;;;5030063;28;20870;-77
2023/07/21 18:53:09;;;;;;;;;;;;;;;;;;5056912;28;20287;-77
2023/07/21 18:55:36;;;;;;;;;;;;;;;;;;5040431;28;19920;-78
2023/07/21 18:58:02;;;;;;;;;;;;;;;;;;5045690;28;20740;-77
2023/07/21 19:00:27;;;;;;;;;;;;;;;;;;5032249;28;19921;-81
2023/07/21 19:02:52;;;;;;;;;;;;;;;;;;5033730;28;19951;-78
2023/07/21 19:05:18;;;;;;;;;;;;;;;;;;5043467;28;20345;-79
2023/07/21 19:07:43;;;;;;;;;;;;;;;;;;5059086;28;19916;-77
2023/07/21 19:10:11;;;;;;;;;;;;;;;;;;5031249;28;19945;-79
2023/07/21 19:12:36;;;;;;;;;;;;;;;;;;5025329;28;19926;-78